createdAt,value
2024-03-12T00:00:01.539Z,87
2024-03-12T00:09:47.062Z,87
2024-03-12T00:19:47.207Z,87
2024-03-12T00:29:54.777Z,87
2024-03-12T00:39:54.996Z,87
2024-03-12T00:50:02.540Z,87
2024-03-12T00:59:47.972Z,87
2024-03-12T01:09:55.590Z,87
2024-03-12T01:19:48.381Z,87
2024-03-12T01:29:48.608Z,87
2024-03-12T01:39:48.803Z,87
2024-03-12T01:59:49.174Z,87
2024-03-12T02:09:49.403Z,87
2024-03-12T02:19:56.955Z,87
2024-03-12T02:39:57.346Z,87
2024-03-12T02:49:50.180Z,88
2024-03-12T02:59:57.731Z,88
2024-03-12T03:19:58.102Z,88
2024-03-12T03:29:58.301Z,88
2024-03-12T03:39:58.501Z,88
2024-03-12T03:59:58.893Z,88
2024-03-12T04:09:59.103Z,88
2024-03-12T04:19:51.911Z,88
2024-03-12T04:29:59.479Z,88
2024-03-12T04:39:52.417Z,88
2024-03-12T04:49:52.558Z,88
2024-03-12T04:59:52.686Z,88
2024-03-12T05:10:00.465Z,88
2024-03-12T05:19:53.103Z,88
2024-03-12T05:29:53.296Z,88
2024-03-12T05:40:00.947Z,88
2024-03-12T05:50:03.033Z,88
2024-03-12T05:59:53.879Z,88
2024-03-12T06:29:54.472Z,88
2024-03-12T07:10:02.746Z,88
2024-03-12T07:30:03.023Z,88
2024-03-12T07:40:03.320Z,87
2024-03-12T07:59:56.242Z,87
2024-03-12T08:09:56.496Z,87
2024-03-12T08:20:04.016Z,87
2024-03-12T08:29:56.822Z,87
2024-03-12T08:40:11.808Z,87
2024-03-12T08:49:57.224Z,87
2024-03-12T08:59:57.423Z,87
2024-03-12T09:19:57.818Z,87
2024-03-12T09:29:58.067Z,87
2024-03-12T09:40:05.630Z,86
2024-03-12T09:49:58.453Z,87
2024-03-12T09:59:58.604Z,87
2024-03-12T10:19:59.022Z,87
2024-03-12T10:29:59.198Z,87
2024-03-12T10:40:06.822Z,87
2024-03-12T11:00:07.158Z,87
2024-03-12T11:10:00.022Z,87
2024-03-12T11:30:15.101Z,86
2024-03-12T11:40:00.613Z,86
2024-03-12T11:50:02.991Z,86
2024-03-12T12:00:15.799Z,85
2024-03-12T12:10:16.053Z,84
2024-03-12T12:30:03.355Z,83
2024-03-12T12:50:01.984Z,82
2024-03-12T13:10:09.696Z,81
2024-03-12T13:20:09.874Z,80
2024-03-12T13:30:10.083Z,80
2024-03-12T13:50:03.099Z,78
2024-03-12T14:30:11.274Z,79
2024-03-12T14:40:11.553Z,79
2024-03-12T15:00:05.731Z,78
2024-03-12T15:10:12.190Z,78
2024-03-12T15:20:12.227Z,78
2024-03-12T15:50:13.019Z,77
2024-03-12T16:00:13.000Z,77
2024-03-12T16:10:20.627Z,76
2024-03-12T16:20:06.050Z,75
2024-03-12T16:40:21.276Z,74
2024-03-12T16:50:21.361Z,74
2024-03-12T17:00:06.796Z,75
2024-03-12T17:10:06.990Z,75
2024-03-12T17:30:22.162Z,75
2024-03-12T17:40:07.650Z,76
2024-03-12T17:50:07.922Z,76
2024-03-12T18:00:15.361Z,76
2024-03-12T18:10:22.954Z,76
2024-03-12T18:20:15.757Z,76
2024-03-12T18:30:08.623Z,76
2024-03-12T18:40:16.163Z,76
2024-03-12T18:50:23.713Z,76
2024-03-12T19:00:23.900Z,76
2024-03-12T19:10:16.749Z,75
2024-03-12T19:20:09.554Z,75
2024-03-12T19:30:24.520Z,75
2024-03-12T19:50:17.508Z,76
2024-03-12T20:00:10.337Z,76
2024-03-12T20:10:10.543Z,77
2024-03-12T20:20:18.070Z,77
2024-03-12T20:30:10.959Z,78
2024-03-12T20:40:11.138Z,78
2024-03-12T21:00:11.512Z,78
2024-03-12T21:10:11.769Z,79
2024-03-12T21:20:11.940Z,79
2024-03-12T21:30:12.091Z,79
2024-03-12T21:40:19.696Z,79
2024-03-12T21:50:19.885Z,79
2024-03-12T22:00:27.494Z,79
2024-03-12T22:20:13.054Z,79
2024-03-12T22:50:13.643Z,79
2024-03-12T23:00:13.885Z,79
2024-03-12T23:10:21.475Z,78
2024-03-12T23:30:21.812Z,78
2024-03-12T23:40:22.084Z,78
2024-03-12T23:50:29.597Z,78
